Time;durP1;ratioP1;P1;durP2;ratioP2;P2;SDS_P1;SDS_P2;PMS_P1;PMS_P2;Temp;Humidity;BMP_temperature;BMP_pressure;BME280_temperature;BME280_humidity;BME280_pressure;Samples;Min_cycle;Max_cycle;Signal;HPM_P1;HPM_P2
2023/09/06 00:01:25;;;;;;;;;4.00;4.00;;;;;18.56;62.00;100205.97;5093146;28;8842;-59
2023/09/06 00:03:55;;;;;;;;;6.80;6.00;;;;;18.56;61.91;100211.38;5091759;28;8844;-58
2023/09/06 00:06:24;;;;;;;;;7.00;6.60;;;;;18.56;62.10;100205.13;5093742;28;8815;-59
2023/09/06 00:08:51;;;;;;;;;6.40;6.40;;;;;18.56;62.14;100203.28;5094678;28;8826;-59
2023/09/06 00:11:19;;;;;;;;;4.00;4.00;;;;;18.55;62.06;100204.28;5095128;28;8822;-59
2023/09/06 00:13:47;;;;;;;;;6.00;6.00;;;;;18.52;61.88;100203.78;5094133;28;8819;-59
2023/09/06 00:16:15;;;;;;;;;3.20;3.20;;;;;18.51;61.67;100210.19;5094600;28;8834;-59
2023/09/06 00:18:43;;;;;;;;;7.80;6.40;;;;;18.49;62.32;100207.66;5093045;28;8818;-58
2023/09/06 00:21:11;;;;;;;;;4.80;4.00;;;;;18.47;61.76;100212.38;5095050;28;8841;-59
2023/09/06 00:23:40;;;;;;;;;4.40;4.40;;;;;18.45;62.36;100211.66;5093485;28;8814;-59
2023/09/06 00:26:07;;;;;;;;;4.40;4.00;;;;;18.44;62.29;100209.16;5093933;28;8880;-59
2023/09/06 00:28:35;;;;;;;;;5.20;5.20;;;;;18.42;62.32;100213.84;5093683;28;8826;-59
2023/09/06 00:31:03;;;;;;;;;6.00;6.00;;;;;18.40;62.49;100207.78;5093856;28;8803;-59
2023/09/06 00:33:35;;;;;;;;;9.40;9.00;;;;;18.40;62.18;100215.88;5094242;28;8806;-58
2023/09/06 00:36:02;;;;;;;;;6.00;6.00;;;;;18.40;61.95;100219.44;5092640;28;8814;-60
2023/09/06 00:38:30;;;;;;;;;5.60;5.60;;;;;18.40;62.22;100211.34;5093353;28;8807;-58
2023/09/06 00:40:58;;;;;;;;;5.20;4.80;;;;;18.39;61.76;100204.25;5093952;28;8822;-59
2023/09/06 00:43:26;;;;;;;;;6.00;4.40;;;;;18.39;62.13;100220.44;5092283;28;8872;-59
2023/09/06 00:45:53;;;;;;;;;6.00;6.00;;;;;18.38;62.26;100213.34;5093652;28;8842;-59
2023/09/06 00:48:21;;;;;;;;;4.00;4.00;;;;;18.40;62.36;100221.28;5093067;28;8818;-59
2023/09/06 00:50:50;;;;;;;;;6.00;6.00;;;;;18.39;62.37;100216.88;5094583;28;8826;-60
2023/09/06 00:53:18;;;;;;;;;5.20;5.20;;;;;18.46;62.59;100210.69;5093509;28;8837;-59
2023/09/06 00:55:48;;;;;;;;;3.40;3.00;;;;;18.50;61.80;100217.41;5093398;28;8827;-59
2023/09/06 00:58:16;;;;;;;;;2.60;1.00;;;;;18.52;62.10;100223.47;5092047;28;8802;-60
2023/09/06 01:00:44;;;;;;;;;6.00;6.00;;;;;18.55;61.79;100216.91;5092511;28;9549;-60
2023/09/06 01:03:12;;;;;;;;;5.20;5.20;;;;;18.53;62.28;100219.78;5091992;28;8851;-61
2023/09/06 01:05:40;;;;;;;;;5.20;4.80;;;;;18.52;62.55;100220.78;5094045;28;8814;-60
2023/09/06 01:08:07;;;;;;;;;3.40;3.40;;;;;18.49;61.99;100217.56;5093399;28;8829;-61
2023/09/06 01:10:35;;;;;;;;;6.00;5.60;;;;;18.45;62.37;100227.03;5093299;28;8869;-61
2023/09/06 01:13:03;;;;;;;;;5.60;5.60;;;;;18.37;62.38;100221.63;5093163;28;8848;-58
2023/09/06 01:15:31;;;;;;;;;4.80;4.00;;;;;18.32;62.55;100215.84;5092916;28;8818;-59
2023/09/06 01:17:58;;;;;;;;;3.00;3.00;;;;;18.27;62.54;100221.72;5086914;28;8826;-59
2023/09/06 01:20:26;;;;;;;;;4.40;4.00;;;;;18.22;62.96;100229.44;5092931;28;8848;-60
2023/09/06 01:22:54;;;;;;;;;3.00;3.00;;;;;18.16;62.74;100224.72;5093355;28;8810;-60
2023/09/06 01:25:21;;;;;;;;;5.60;4.00;;;;;18.13;62.79;100222.34;5092886;28;8814;-61
2023/09/06 01:27:49;;;;;;;;;3.60;3.60;;;;;18.13;63.12;100219.63;5092896;28;8840;-58
2023/09/06 01:30:16;;;;;;;;;2.20;2.20;;;;;18.13;62.65;100221.50;5092624;28;9527;-59
2023/09/06 01:32:44;;;;;;;;;3.40;3.20;;;;;18.12;62.65;100228.75;5092708;28;8827;-61
2023/09/06 01:35:12;;;;;;;;;4.40;4.00;;;;;18.12;63.12;100238.66;5089683;28;8833;-59
2023/09/06 01:37:39;;;;;;;;;3.00;3.00;;;;;18.08;63.09;100232.75;5092183;28;8799;-61
2023/09/06 01:40:17;;;;;;;;;3.40;3.40;;;;;18.05;63.41;100225.00;5092846;28;8806;-59
2023/09/06 01:42:45;;;;;;;;;5.20;5.20;;;;;18.01;62.81;100226.34;5091871;28;8841;-59
2023/09/06 01:45:14;;;;;;;;;1.80;1.80;;;;;17.96;62.99;100228.69;5092783;28;8818;-61
2023/09/06 01:47:42;;;;;;;;;5.20;5.20;;;;;17.92;63.55;100230.00;5092745;28;8836;-58
2023/09/06 01:50:09;;;;;;;;;4.00;4.00;;;;;17.88;63.27;100231.34;5092861;28;9578;-60
2023/09/06 01:52:40;;;;;;;;;4.00;4.00;;;;;17.84;63.30;100231.81;5092480;28;8845;-60
2023/09/06 01:55:07;;;;;;;;;3.20;3.00;;;;;17.81;63.45;100232.13;5093705;28;8806;-58
2023/09/06 01:57:35;;;;;;;;;3.80;3.80;;;;;17.78;63.63;100241.38;5096358;28;8956;-59
2023/09/06 02:00:18;;;;;;;;;4.80;3.00;;;;;17.77;63.71;100233.47;5095708;28;8803;-61
2023/09/06 02:02:46;;;;;;;;;4.80;4.00;;;;;17.72;63.30;100235.78;5096162;28;8845;-60
2023/09/06 02:05:15;;;;;;;;;5.60;5.20;;;;;17.69;63.92;100238.81;5096566;28;9537;-60
2023/09/06 02:07:43;;;;;;;;;4.80;4.80;;;;;17.67;63.89;100238.97;5096758;28;8852;-58
2023/09/06 02:10:11;;;;;;;;;4.00;4.00;;;;;17.64;63.66;100239.28;5096193;28;8818;-59
2023/09/06 02:12:38;;;;;;;;;4.00;4.00;;;;;17.59;63.97;100238.91;5096155;28;8830;-61
2023/09/06 02:15:07;;;;;;;;;7.00;6.00;;;;;17.56;63.78;100239.25;5095671;28;8841;-59
2023/09/06 02:17:34;;;;;;;;;6.00;6.00;;;;;17.49;64.14;100237.34;5096256;28;8853;-59
2023/09/06 02:20:13;;;;;;;;;5.60;5.60;;;;;17.44;64.61;100247.72;5096747;28;8798;-60
2023/09/06 02:22:41;;;;;;;;;5.60;5.60;;;;;17.35;64.37;100249.50;5096510;28;8826;-61
2023/09/06 02:25:09;;;;;;;;;5.80;5.60;;;;;17.27;64.42;100249.44;5096696;28;8884;-60
2023/09/06 02:27:37;;;;;;;;;5.60;3.80;;;;;17.20;64.59;100251.06;5096403;28;9460;-58
2023/09/06 02:30:06;;;;;;;;;5.60;5.60;;;;;17.14;64.58;100256.22;5095102;28;8834;-61
2023/09/06 02:32:34;;;;;;;;;6.20;6.20;;;;;17.06;64.63;100258.84;5095203;28;8802;-58
2023/09/06 02:35:02;;;;;;;;;7.00;7.00;;;;;17.00;65.23;100256.78;5096681;28;9499;-59
2023/09/06 02:37:29;;;;;;;;;5.60;5.20;;;;;16.94;65.11;100260.09;5096606;28;8813;-60
2023/09/06 02:39:57;;;;;;;;;10.00;6.20;;;;;16.90;65.58;100264.94;5096232;28;8810;-59
2023/09/06 02:42:24;;;;;;;;;9.40;9.40;;;;;16.88;65.59;100272.31;5096002;28;8837;-58
2023/09/06 02:44:53;;;;;;;;;7.80;7.80;;;;;16.87;65.30;100278.69;5095779;28;8842;-59
2023/09/06 02:47:28;;;;;;;;;9.80;9.00;;;;;16.87;65.12;100276.00;5096249;28;8838;-58
2023/09/06 02:49:56;;;;;;;;;8.20;6.60;;;;;16.88;65.36;100282.22;5096058;28;8818;-58
2023/09/06 02:52:28;;;;;;;;;8.20;7.80;;;;;16.88;65.16;100277.72;5096192;28;8908;-58
2023/09/06 02:54:57;;;;;;;;;7.80;7.80;;;;;16.89;65.28;100276.69;5095869;28;8818;-61
2023/09/06 02:57:25;;;;;;;;;8.20;7.00;;;;;16.91;64.62;100277.38;5095526;28;8940;-62
2023/09/06 02:59:53;;;;;;;;;4.00;4.00;;;;;16.93;65.36;100285.31;5096135;28;8842;-61
2023/09/06 03:02:22;;;;;;;;;6.40;6.20;;;;;16.93;65.01;100279.94;5094604;28;8825;-59
2023/09/06 03:04:54;;;;;;;;;7.00;7.00;;;;;16.93;64.92;100286.16;5095626;28;8957;-60
2023/09/06 03:07:22;;;;;;;;;8.20;7.00;;;;;16.92;65.03;100284.44;5095301;28;8833;-59
2023/09/06 03:09:50;;;;;;;;;6.00;6.00;;;;;16.86;65.08;100287.75;5095997;28;8858;-59
2023/09/06 03:12:18;;;;;;;;;3.40;3.40;;;;;16.82;65.42;100283.69;5096134;28;8872;-59
2023/09/06 03:14:47;;;;;;;;;6.40;6.00;;;;;16.79;65.94;100286.66;5095819;28;8827;-58
2023/09/06 03:17:18;;;;;;;;;7.40;7.40;;;;;16.76;65.68;100284.31;5096475;28;8849;-58
2023/09/06 03:19:48;;;;;;;;;6.40;6.40;;;;;16.73;65.71;100292.69;5095677;28;8852;-59
2023/09/06 03:22:16;;;;;;;;;6.00;6.00;;;;;16.74;65.62;100296.22;5095232;28;8836;-59
2023/09/06 03:24:44;;;;;;;;;7.40;7.40;;;;;16.73;65.19;100297.22;5096105;28;9471;-59
2023/09/06 03:27:15;;;;;;;;;9.60;8.20;;;;;16.73;65.32;100305.28;5095577;28;8864;-59
2023/09/06 03:29:43;;;;;;;;;6.20;5.60;;;;;16.74;65.67;100307.81;5095710;28;8937;-59
2023/09/06 03:32:11;;;;;;;;;7.00;6.20;;;;;16.77;64.94;100307.50;5096015;28;8814;-58
2023/09/06 03:34:40;;;;;;;;;7.00;7.00;;;;;16.80;65.62;100307.19;5095415;28;8837;-60
2023/09/06 03:37:10;;;;;;;;;6.80;6.80;;;;;16.83;65.40;100306.91;5095721;28;8822;-61
2023/09/06 03:39:41;;;;;;;;;6.40;6.20;;;;;16.86;65.28;100311.97;5096122;28;8833;-59
2023/09/06 03:42:09;;;;;;;;;6.00;6.00;;;;;16.89;65.33;100306.31;5095423;28;8810;-59
2023/09/06 03:44:36;;;;;;;;;12.00;9.25;;;;;16.94;64.61;100306.66;5094902;28;8849;-61
2023/09/06 03:47:13;;;;;;;;;4.00;4.00;;;;;16.98;64.68;100307.19;5095170;28;9561;-58
2023/09/06 03:49:41;;;;;;;;;6.00;6.00;;;;;16.99;64.62;100307.06;5094813;28;8837;-61
2023/09/06 03:52:09;;;;;;;;;6.60;5.20;;;;;16.96;64.95;100307.38;5096211;28;8849;-59
2023/09/06 03:54:36;;;;;;;;;4.00;3.40;;;;;16.95;65.10;100307.53;5095380;28;8814;-60
2023/09/06 03:57:04;;;;;;;;;7.40;7.00;;;;;16.91;64.91;100316.88;5095467;28;8818;-58
2023/09/06 03:59:35;;;;;;;;;5.60;5.60;;;;;16.87;65.03;100318.22;5095268;28;9502;-59
2023/09/06 04:02:02;;;;;;;;;7.00;7.00;;;;;16.85;64.87;100314.84;5095026;28;8826;-60
2023/09/06 04:04:30;;;;;;;;;5.60;5.60;;;;;16.87;64.99;100313.66;5095342;28;8940;-58
2023/09/06 04:06:58;;;;;;;;;8.00;8.00;;;;;16.87;64.99;100313.66;5095381;28;8960;-58
2023/09/06 04:09:30;;;;;;;;;7.40;6.80;;;;;16.87;65.62;100310.97;5094726;28;8872;-61
2023/09/06 04:11:58;;;;;;;;;7.00;6.00;;;;;16.86;64.87;100322.72;5094147;28;8830;-59
2023/09/06 04:14:25;;;;;;;;;6.40;6.00;;;;;16.84;65.02;100322.03;5094813;28;8814;-59
2023/09/06 04:16:53;;;;;;;;;7.00;7.00;;;;;16.80;65.32;100323.31;5094619;28;8826;-59
2023/09/06 04:19:21;;;;;;;;;6.60;6.60;;;;;16.82;64.94;100326.72;5094241;28;8834;-59
2023/09/06 04:21:49;;;;;;;;;6.00;6.00;;;;;16.85;65.41;100326.41;5094276;28;8973;-59
2023/09/06 04:24:17;;;;;;;;;6.00;5.50;;;;;16.89;65.05;100333.19;5094661;28;8822;-58
2023/09/06 04:26:44;;;;;;;;;6.80;6.20;;;;;16.90;65.07;100324.13;5094916;28;8818;-59
2023/09/06 04:29:14;;;;;;;;;7.80;7.00;;;;;16.91;64.95;100325.81;5094633;28;8852;-58
2023/09/06 04:31:42;;;;;;;;;5.60;5.60;;;;;16.88;65.20;100326.13;5094321;28;8838;-59
2023/09/06 04:34:11;;;;;;;;;6.80;6.60;;;;;16.81;65.04;100327.75;5094436;28;8948;-59
2023/09/06 04:36:39;;;;;;;;;6.80;6.40;;;;;16.71;65.83;100335.00;5094147;28;8825;-59
2023/09/06 04:39:08;;;;;;;;;6.00;6.00;;;;;16.61;65.79;100334.22;5094407;28;8848;-58
2023/09/06 04:41:37;;;;;;;;;5.20;4.00;;;;;16.52;65.74;100337.81;5093773;28;8822;-61
2023/09/06 04:44:04;;;;;;;;;7.00;6.00;;;;;16.43;66.06;100341.41;5094563;28;8833;-60
2023/09/06 04:46:32;;;;;;;;;6.00;4.00;;;;;16.36;66.54;100348.34;5094100;28;8838;-60
2023/09/06 04:49:00;;;;;;;;;6.00;6.00;;;;;16.30;66.51;100358.81;5093601;28;8879;-60
2023/09/06 04:51:28;;;;;;;;;6.25;6.00;;;;;16.25;66.90;100353.06;5093718;28;8988;-60
2023/09/06 04:53:55;;;;;;;;;4.00;4.00;;;;;16.23;66.62;100359.59;5093705;28;8848;-59
2023/09/06 04:56:23;;;;;;;;;4.40;4.00;;;;;16.20;66.50;100361.53;5094137;28;8838;-58
2023/09/06 04:58:50;;;;;;;;;6.80;6.00;;;;;16.18;66.64;100365.41;5093954;28;8818;-59
2023/09/06 05:01:18;;;;;;;;;3.80;3.80;;;;;16.17;66.90;100366.41;5093088;28;8844;-58
2023/09/06 05:03:46;;;;;;;;;6.00;6.00;;;;;16.15;66.68;100370.22;5094176;28;8833;-61
2023/09/06 05:06:14;;;;;;;;;4.50;4.00;;;;;16.12;66.54;100373.19;5093540;28;8810;-61
2023/09/06 05:08:42;;;;;;;;;4.80;4.40;;;;;16.08;66.87;100369.94;5093143;28;8860;-61
2023/09/06 05:11:10;;;;;;;;;7.00;6.50;;;;;16.06;66.90;100360.31;5092936;28;8826;-59
2023/09/06 05:13:38;;;;;;;;;3.40;3.40;;;;;16.05;66.67;100364.00;5093497;28;8818;-60
2023/09/06 05:16:07;;;;;;;;;6.00;6.00;;;;;16.04;66.55;100360.50;5093293;28;8846;-61
2023/09/06 05:18:35;;;;;;;;;6.25;6.25;;;;;16.06;66.71;100363.00;5093673;28;8864;-59
2023/09/06 05:21:05;;;;;;;;;6.00;6.00;;;;;16.05;66.66;100372.06;5093726;28;8832;-59
2023/09/06 05:23:35;;;;;;;;;5.50;5.50;;;;;16.05;66.58;100369.38;5093426;28;8826;-60
2023/09/06 05:26:05;;;;;;;;;6.40;5.20;;;;;16.06;66.50;100371.06;5093776;28;8826;-59
2023/09/06 05:28:32;;;;;;;;;6.00;6.00;;;;;16.09;66.64;100370.81;5094691;28;9499;-59
2023/09/06 05:31:00;;;;;;;;;6.00;6.00;;;;;16.15;66.76;100378.28;5097007;28;8829;-61
2023/09/06 05:33:28;;;;;;;;;7.75;7.75;;;;;16.23;66.47;100386.47;5097575;28;8850;-59
2023/09/06 05:35:56;;;;;;;;;7.00;7.00;;;;;16.31;66.23;100384.72;5097522;28;8838;-59
2023/09/06 05:38:24;;;;;;;;;6.25;6.25;;;;;16.40;65.70;100379.34;5097613;28;9746;-61
2023/09/06 05:40:53;;;;;;;;;6.00;6.00;;;;;16.46;65.57;100381.44;5097360;28;8853;-59
2023/09/06 05:43:20;;;;;;;;;6.00;6.00;;;;;16.55;65.78;100385.91;5097040;28;8869;-59
2023/09/06 05:45:48;;;;;;;;;8.25;8.00;;;;;16.64;65.25;100390.38;5096722;28;8969;-58
2023/09/06 05:48:16;;;;;;;;;7.50;6.50;;;;;16.73;65.05;100392.22;5096849;28;8833;-58
2023/09/06 05:50:44;;;;;;;;;9.50;9.50;;;;;16.82;64.90;100385.91;5095773;28;8850;-60
2023/09/06 05:53:11;;;;;;;;;8.00;7.75;;;;;16.92;64.77;100392.06;5096642;28;8849;-61
2023/09/06 05:55:39;;;;;;;;;7.00;7.00;;;;;17.02;64.48;100386.63;5096408;28;8864;-59
2023/09/06 05:58:07;;;;;;;;;8.20;7.40;;;;;17.15;63.87;100389.81;5096388;28;8830;-59
2023/09/06 06:00:36;;;;;;;;;5.60;5.60;;;;;17.28;64.48;100390.25;5096285;28;8829;-58
2023/09/06 06:03:04;;;;;;;;;7.20;6.80;;;;;17.40;63.58;100387.22;5095902;28;8830;-61
2023/09/06 06:05:32;;;;;;;;;6.60;5.60;;;;;17.52;63.42;100394.06;5095748;28;8884;-59
2023/09/06 06:08:00;;;;;;;;;6.00;6.00;;;;;17.62;63.41;100386.75;5096121;28;8845;-58
2023/09/06 06:10:34;;;;;;;;;6.40;4.00;;;;;17.72;63.67;100398.28;5095534;28;8830;-59
2023/09/06 06:13:03;;;;;;;;;4.40;3.60;;;;;17.85;63.48;100389.78;5096134;28;8830;-60
2023/09/06 06:15:31;;;;;;;;;7.80;7.80;;;;;18.01;62.84;100390.75;5095497;28;8964;-59
2023/09/06 06:17:59;;;;;;;;;8.00;6.40;;;;;18.13;62.70;100386.78;5096327;28;8857;-58
2023/09/06 06:20:26;;;;;;;;;9.20;9.00;;;;;18.26;62.32;100386.34;5096463;28;8825;-62
2023/09/06 06:23:09;;;;;;;;;7.40;7.40;;;;;18.42;62.48;100387.31;5095991;28;8965;-61
2023/09/06 06:25:38;;;;;;;;;7.00;6.60;;;;;18.55;62.40;100382.34;5096482;28;8822;-59
2023/09/06 06:28:06;;;;;;;;;9.40;9.00;;;;;18.70;61.92;100390.66;5095765;28;8981;-59
2023/09/06 06:30:34;;;;;;;;;6.60;6.20;;;;;18.83;61.78;100386.47;5094823;28;8858;-59
2023/09/06 06:33:02;;;;;;;;;9.60;8.20;;;;;18.95;61.31;100392.41;5094597;28;8855;-59
2023/09/06 06:35:32;;;;;;;;;7.00;6.80;;;;;19.09;61.47;100391.78;5094913;28;8853;-60
2023/09/06 06:38:02;;;;;;;;;6.20;6.00;;;;;19.22;61.08;100386.78;5094993;28;8918;-59
2023/09/06 06:40:29;;;;;;;;;6.80;6.60;;;;;19.35;60.60;100387.16;5093768;28;8958;-60
2023/09/06 06:42:57;;;;;;;;;10.00;9.00;;;;;19.49;60.89;100392.72;5095690;28;8842;-59
2023/09/06 06:45:25;;;;;;;;;7.00;7.00;;;;;19.61;60.97;100390.53;5094227;28;8830;-58
2023/09/06 06:47:53;;;;;;;;;7.20;6.60;;;;;19.71;60.13;100389.38;5094295;28;8903;-60
2023/09/06 06:50:21;;;;;;;;;5.40;5.40;;;;;19.85;60.15;100391.38;5094324;28;8846;-59
2023/09/06 06:52:50;;;;;;;;;5.60;5.60;;;;;19.97;60.26;100392.75;5094141;28;8968;-61
2023/09/06 06:55:18;;;;;;;;;7.00;5.80;;;;;20.08;59.96;100400.53;5094632;28;8902;-60
2023/09/06 06:57:46;;;;;;;;;6.60;6.60;;;;;20.21;59.81;100400.00;5095116;28;8834;-61
2023/09/06 07:00:17;;;;;;;;;4.20;4.20;;;;;20.33;59.33;100404.84;5094749;28;8834;-59
2023/09/06 07:02:45;;;;;;;;;6.80;6.80;;;;;20.46;59.52;100407.06;5095029;28;8830;-62
2023/09/06 07:05:13;;;;;;;;;8.00;7.40;;;;;20.57;58.98;100396.69;5095479;28;9584;-62
2023/09/06 07:07:41;;;;;;;;;7.00;7.00;;;;;20.71;58.70;100400.53;5094878;28;8840;-61
2023/09/06 07:10:09;;;;;;;;;2.00;2.00;;;;;20.83;59.04;100402.66;5094978;28;8833;-60
2023/09/06 07:12:37;;;;;;;;;4.00;2.40;;;;;20.94;59.17;100396.88;5095107;28;8842;-59
2023/09/06 07:15:06;;;;;;;;;8.00;5.80;;;;;21.07;58.49;100398.03;5094882;28;9014;-61
2023/09/06 07:17:34;;;;;;;;;7.00;7.00;;;;;21.17;58.22;100386.94;5094551;28;9520;-59
2023/09/06 07:20:04;;;;;;;;;5.00;5.00;;;;;21.27;58.50;100393.81;5094546;28;8870;-60
2023/09/06 07:22:33;;;;;;;;;4.20;4.20;;;;;21.37;57.82;100394.44;5095087;28;8852;-60
2023/09/06 07:25:01;;;;;;;;;5.00;5.00;;;;;21.49;57.98;100392.97;5094204;28;8830;-59
2023/09/06 07:27:32;;;;;;;;;4.00;4.00;;;;;21.61;57.60;100393.41;5094599;28;8861;-60
2023/09/06 07:29:59;;;;;;;;;5.80;5.80;;;;;21.72;58.00;100388.44;5095289;28;8830;-59
2023/09/06 07:32:27;;;;;;;;;4.80;4.80;;;;;21.84;57.60;100394.25;5094912;28;8834;-59
2023/09/06 07:34:55;;;;;;;;;4.00;4.00;;;;;21.96;57.64;100390.09;5094698;28;8901;-61
2023/09/06 07:37:23;;;;;;;;;6.40;5.00;;;;;22.10;57.34;100389.28;5095307;28;8865;-60
2023/09/06 07:39:53;;;;;;;;;5.00;4.80;;;;;22.23;57.46;100389.50;5096107;28;8826;-58
2023/09/06 07:42:20;;;;;;;;;5.20;5.20;;;;;22.37;56.98;100388.63;5095056;28;8810;-60
2023/09/06 07:44:48;;;;;;;;;6.60;6.60;;;;;22.52;56.66;100389.53;5094874;28;8818;-60
2023/09/06 07:47:16;;;;;;;;;4.40;4.20;;;;;22.63;56.47;100383.63;5094328;28;9664;-62
2023/09/06 07:49:45;;;;;;;;;6.80;5.00;;;;;22.78;56.81;100389.91;5094695;28;8879;-60
2023/09/06 07:52:13;;;;;;;;;6.80;6.40;;;;;22.92;56.34;100389.88;5093307;28;8830;-60
2023/09/06 07:54:41;;;;;;;;;8.00;8.00;;;;;23.06;55.90;100388.19;5094672;28;8826;-60
2023/09/06 07:57:08;;;;;;;;;7.20;6.00;;;;;23.20;55.98;100387.31;5094345;28;8899;-59
2023/09/06 07:59:36;;;;;;;;;5.40;4.40;;;;;23.36;55.74;100387.09;5094379;28;8845;-61
2023/09/06 08:02:08;;;;;;;;;5.60;5.00;;;;;23.53;55.81;100392.06;5094570;28;8818;-60
2023/09/06 08:04:36;;;;;;;;;2.00;1.00;;;;;23.68;54.94;100394.72;5094041;28;8993;-62
2023/09/06 08:07:04;;;;;;;;;8.40;6.00;;;;;23.79;54.94;100394.19;5093774;28;8834;-60
2023/09/06 08:09:32;;;;;;;;;6.00;5.80;;;;;23.91;54.74;100400.84;5094221;28;8830;-60
2023/09/06 08:12:00;;;;;;;;;7.80;6.00;;;;;24.03;54.42;100396.53;5093548;28;8833;-60
2023/09/06 08:14:28;;;;;;;;;5.20;5.20;;;;;24.11;54.27;100394.50;5094312;28;8841;-61
2023/09/06 08:16:56;;;;;;;;;5.40;5.40;;;;;24.23;54.06;100386.66;5094341;28;8865;-59
2023/09/06 08:19:24;;;;;;;;;7.80;6.00;;;;;24.39;54.44;100392.63;5093208;28;9067;-61
2023/09/06 08:21:52;;;;;;;;;5.80;5.80;;;;;24.53;53.91;100388.97;5092538;28;8843;-61
2023/09/06 08:24:20;;;;;;;;;7.80;6.80;;;;;24.69;53.71;100385.09;5092398;28;8934;-61
2023/09/06 08:26:48;;;;;;;;;9.00;7.20;;;;;24.85;53.60;100382.00;5093065;28;8852;-62
2023/09/06 08:29:16;;;;;;;;;8.00;7.20;;;;;24.99;53.40;100384.63;5093433;28;8956;-61
2023/09/06 08:31:44;;;;;;;;;9.00;7.00;;;;;25.12;53.46;100384.66;5092934;28;8960;-62
2023/09/06 08:34:12;;;;;;;;;7.20;7.20;;;;;25.29;52.45;100385.16;5092594;28;8860;-60
2023/09/06 08:36:40;;;;;;;;;9.00;7.00;;;;;25.40;52.97;100379.94;5092971;28;8833;-60
2023/09/06 08:39:08;;;;;;;;;6.20;6.00;;;;;25.53;52.46;100377.25;5093186;28;8834;-60
2023/09/06 08:41:37;;;;;;;;;5.00;5.00;;;;;25.66;52.54;100378.09;5093376;28;9524;-60
2023/09/06 08:44:06;;;;;;;;;7.80;7.00;;;;;25.79;52.29;100375.38;5093010;28;8936;-60
2023/09/06 08:46:34;;;;;;;;;6.00;5.20;;;;;25.90;52.04;100372.06;5093411;28;9524;-61
2023/09/06 08:49:03;;;;;;;;;7.40;5.40;;;;;26.03;51.79;100374.78;5092926;28;8838;-60
2023/09/06 08:51:35;;;;;;;;;5.60;5.60;;;;;26.13;51.38;100368.91;5093523;28;8834;-61
2023/09/06 08:54:04;;;;;;;;;6.00;5.60;;;;;26.28;51.49;100378.53;5093013;28;8919;-60
2023/09/06 08:56:32;;;;;;;;;6.00;6.00;;;;;26.45;51.25;100381.66;5093414;28;8833;-60
2023/09/06 08:59:00;;;;;;;;;6.60;5.60;;;;;26.58;50.89;100378.94;5092654;28;8830;-62
2023/09/06 09:01:27;;;;;;;;;6.60;6.40;;;;;26.68;50.74;100379.34;5092960;28;8850;-61
2023/09/06 09:03:56;;;;;;;;;6.80;6.40;;;;;26.75;50.93;100372.81;5093170;28;8846;-60
2023/09/06 09:06:28;;;;;;;;;5.80;5.80;;;;;26.86;49.91;100382.25;5093496;28;8853;-60
2023/09/06 09:08:56;;;;;;;;;4.60;3.60;;;;;27.00;50.59;100368.28;5093033;28;8878;-60
2023/09/06 09:11:24;;;;;;;;;6.00;5.40;;;;;27.17;50.26;100374.97;5092829;28;8836;-61
2023/09/06 09:13:52;;;;;;;;;4.20;4.20;;;;;27.33;49.87;100371.72;5093479;28;8845;-61
2023/09/06 09:16:20;;;;;;;;;6.00;6.00;;;;;27.48;49.90;100372.25;5091938;28;8915;-59
2023/09/06 09:18:49;;;;;;;;;5.60;5.20;;;;;27.59;49.10;100370.72;5091455;28;8860;-59
2023/09/06 09:21:17;;;;;;;;;4.00;4.00;;;;;27.68;49.41;100372.16;5091181;28;8834;-60
2023/09/06 09:23:46;;;;;;;;;5.60;5.60;;;;;27.82;48.77;100368.25;5092632;28;8996;-60
2023/09/06 09:26:14;;;;;;;;;2.00;2.00;;;;;28.02;48.43;100364.31;5092686;28;8927;-62
2023/09/06 09:28:42;;;;;;;;;4.00;4.00;;;;;28.23;48.37;100366.63;5092832;28;8856;-60
2023/09/06 09:31:11;;;;;;;;;3.00;3.00;;;;;28.39;47.82;100371.59;5091753;28;8834;-60
2023/09/06 09:33:39;;;;;;;;;4.00;3.20;;;;;28.53;47.53;100373.09;5092339;28;8834;-60
2023/09/06 09:36:07;;;;;;;;;2.20;2.20;;;;;28.61;47.40;100367.31;5092523;28;8841;-60
2023/09/06 09:38:35;;;;;;;;;3.00;3.00;;;;;28.64;47.38;100364.13;5093095;28;8900;-61
2023/09/06 09:41:03;;;;;;;;;5.60;4.00;;;;;28.61;47.98;100369.22;5092466;28;8830;-59
2023/09/06 09:43:34;;;;;;;;;2.80;2.80;;;;;28.57;47.59;100368.84;5091987;28;8818;-60
2023/09/06 09:46:03;;;;;;;;;4.00;4.00;;;;;28.57;47.80;100374.34;5091555;28;8880;-60
2023/09/06 09:48:30;;;;;;;;;3.20;3.20;;;;;28.56;47.96;100375.41;5091385;28;8856;-60
2023/09/06 09:51:00;;;;;;;;;3.00;3.00;;;;;28.69;47.37;100367.03;5090186;28;8838;-60
2023/09/06 09:53:28;;;;;;;;;3.80;3.00;;;;;29.14;47.10;100367.56;5091420;28;8830;-61
2023/09/06 09:55:56;;;;;;;;;5.20;5.20;;;;;29.72;45.94;100363.16;5091138;28;8846;-63
2023/09/06 09:58:24;;;;;;;;;4.20;4.20;;;;;30.35;45.20;100358.69;5091948;28;8995;-60
2023/09/06 10:00:52;;;;;;;;;3.00;3.00;;;;;31.16;44.39;100357.53;5091576;28;8838;-62
2023/09/06 10:03:20;;;;;;;;;3.60;3.20;;;;;32.05;42.57;100368.56;5092402;28;9503;-61
2023/09/06 10:05:48;;;;;;;;;4.80;4.80;;;;;32.83;41.64;100358.22;5092087;28;8830;-63
2023/09/06 10:08:16;;;;;;;;;4.00;4.00;;;;;33.57;40.87;100354.69;5090693;28;8940;-60
2023/09/06 10:10:44;;;;;;;;;3.00;3.00;;;;;34.25;39.99;100355.66;5090842;28;8826;-61
2023/09/06 10:13:13;;;;;;;;;4.00;4.00;;;;;34.91;39.27;100354.13;5091038;28;8822;-62
2023/09/06 10:15:42;;;;;;;;;4.00;4.00;;;;;35.48;38.46;100357.69;5092469;28;8924;-60
2023/09/06 10:18:11;;;;;;;;;4.80;4.80;;;;;36.00;38.14;100355.56;5095785;28;8846;-61
2023/09/06 10:20:40;;;;;;;;;4.60;4.60;;;;;36.47;37.99;100354.13;5095953;28;8841;-60
2023/09/06 10:23:08;;;;;;;;;4.60;4.60;;;;;36.86;37.65;100353.22;5096031;28;8830;-61
2023/09/06 10:25:36;;;;;;;;;5.40;5.40;;;;;37.19;37.00;100343.38;5096213;28;8842;-61
2023/09/06 10:28:04;;;;;;;;;5.00;5.00;;;;;37.57;36.57;100359.31;5095883;28;8838;-61
2023/09/06 10:30:34;;;;;;;;;4.80;4.80;;;;;37.89;36.75;100356.84;5095848;28;8818;-61
2023/09/06 10:33:04;;;;;;;;;2.20;2.20;;;;;37.86;36.63;100352.69;5094512;28;8899;-61
2023/09/06 10:35:32;;;;;;;;;5.20;4.20;;;;;37.39;37.47;100354.41;5094986;28;9563;-61
2023/09/06 10:38:00;;;;;;;;;6.60;6.00;;;;;36.84;38.09;100355.44;5094501;28;8830;-61
2023/09/06 10:40:28;;;;;;;;;5.00;4.60;;;;;36.32;39.15;100352.22;5094554;28;8830;-61
2023/09/06 10:42:56;;;;;;;;;6.40;5.20;;;;;35.88;39.81;100357.75;5095243;28;8826;-61
2023/09/06 10:45:26;;;;;;;;;5.00;4.00;;;;;35.55;40.58;100353.53;5095490;28;8853;-61
2023/09/06 10:47:54;;;;;;;;;4.60;4.00;;;;;35.42;40.85;100339.38;5095103;28;8838;-60
2023/09/06 10:50:22;;;;;;;;;6.00;6.00;;;;;35.41;40.13;100348.78;5095748;28;8837;-61
2023/09/06 10:52:50;;;;;;;;;5.00;5.00;;;;;35.35;40.57;100347.94;5095650;28;8964;-60
2023/09/06 10:55:18;;;;;;;;;5.60;5.00;;;;;35.34;39.89;100342.69;5094020;28;8834;-61
2023/09/06 10:57:46;;;;;;;;;5.60;5.60;;;;;35.62;39.91;100344.97;5093449;28;8889;-60
2023/09/06 11:00:15;;;;;;;;;6.20;6.00;;;;;35.85;39.21;100333.34;5091531;28;8826;-60
2023/09/06 11:02:43;;;;;;;;;4.00;4.00;;;;;35.77;39.71;100334.72;5093003;28;8834;-61
2023/09/06 11:05:14;;;;;;;;;4.40;4.00;;;;;35.57;39.39;100336.63;5094624;28;8927;-61
2023/09/06 11:07:43;;;;;;;;;5.20;5.00;;;;;35.44;39.82;100324.13;5094098;28;9004;-60
2023/09/06 11:10:13;;;;;;;;;5.60;5.40;;;;;35.44;39.96;100323.28;5093578;28;8782;-60
2023/09/06 11:12:42;;;;;;;;;1.20;1.20;;;;;35.58;39.43;100313.34;5093650;28;8836;-61
2023/09/06 11:15:10;;;;;;;;;5.00;4.00;;;;;35.93;38.25;100316.16;5094142;28;9326;-60
2023/09/06 11:17:38;;;;;;;;;5.40;4.20;;;;;36.43;37.38;100309.44;5094975;28;8850;-61
2023/09/06 11:20:09;;;;;;;;;5.20;5.20;;;;;36.97;36.33;100309.56;5094422;28;8961;-61
2023/09/06 11:22:37;;;;;;;;;4.60;4.60;;;;;37.74;35.61;100309.66;5095244;28;8860;-61
2023/09/06 11:25:05;;;;;;;;;3.00;3.00;;;;;38.41;34.77;100304.91;5095500;28;9695;-61
2023/09/06 11:27:37;;;;;;;;;5.00;4.80;;;;;38.97;34.05;100303.13;5093773;28;8935;-62
2023/09/06 11:30:10;;;;;;;;;4.00;3.80;;;;;39.48;33.77;100312.47;5094674;28;8918;-62
2023/09/06 11:32:39;;;;;;;;;5.00;4.20;;;;;39.87;32.92;100312.97;5094712;28;9525;-62
2023/09/06 11:35:08;;;;;;;;;4.00;4.00;;;;;40.19;32.58;100315.78;5094754;28;8833;-61
2023/09/06 11:37:37;;;;;;;;;3.60;3.20;;;;;40.41;32.27;100309.53;5095059;28;8834;-61
2023/09/06 11:40:12;;;;;;;;;3.00;3.00;;;;;40.48;32.01;100312.75;5094493;28;8845;-61